This is the latest recevied weather packets stored in our database for station/object E27IHO-13. If no packets are shown the sender has not sent any weather packets the latest 10 day(s).
| Time | Temp. | Humidity | Pressure | Rain* | Wind** | Luminosity | Snow |
|---|---|---|---|---|---|---|---|
| 1777514765 | 33.33° C | 63% | 1012 hPa | - | - | 0 W/m² | - |
| 1777510629 | 31.67° C | 71% | 1012 hPa | - | - | 0 W/m² | - |
| 1777510307 | 31.67° C | 70% | 1012 hPa | - | - | 0 W/m² | - |
| 1777509985 | 31.67° C | 71% | 1011 hPa | - | - | 0 W/m² | - |
| 1777509663 | 31.11° C | 73% | 1011 hPa | - | - | 0 W/m² | - |
| 1777509341 | 31.11° C | 73% | 1011 hPa | - | - | 0 W/m² | - |
| 1777509019 | 31.11° C | 73% | 1011 hPa | - | - | 0 W/m² | - |
| 1777508697 | 31.11° C | 72% | 1011 hPa | - | - | 0 W/m² | - |
| 1777508375 | 30.56° C | 76% | 1011 hPa | - | - | 0 W/m² | - |
| 1777508053 | 29.44° C | 80% | 1011 hPa | - | - | 0 W/m² | - |
| 1777507731 | 29.44° C | 80% | 1011 hPa | - | - | 0 W/m² | - |
| 1777507409 | 29.44° C | 80% | 1011 hPa | - | - | 0 W/m² | - |
| 1777507087 | 29.44° C | 81% | 1011 hPa | - | - | 0 W/m² | - |
| 1777506741 | 28.89° C | 81% | 1010 hPa | - | - | 0 W/m² | - |
| 1777506419 | 28.89° C | 81% | 1010 hPa | - | - | 0 W/m² | - |
| 1777506097 | 28.89° C | 82% | 1010 hPa | - | - | 0 W/m² | - |
| 1777505775 | 28.89° C | 82% | 1011 hPa | - | - | 0 W/m² | - |
| 1777505453 | 28.89° C | 83% | 1010 hPa | - | - | 0 W/m² | - |
| 1777505131 | 28.33° C | 84% | 1010 hPa | - | - | 0 W/m² | - |
| 1777504809 | 28.33° C | 84% | 1010 hPa | - | - | 0 W/m² | - |
| 1777498557 | 28.89° C | 79% | 1009 hPa | - | - | 0 W/m² | - |
| 1777498235 | 29.44° C | 79% | 1009 hPa | - | - | 0 W/m² | - |
| 1777497913 | 29.44° C | 79% | 1009 hPa | - | - | 0 W/m² | - |
| 1777497591 | 29.44° C | 78% | 1009 hPa | - | - | 0 W/m² | - |
| 1777497269 | 29.44° C | 78% | 1009 hPa | - | - | 0 W/m² | - |
* Rain since midnight (hover to see other rain measurements)
** Current wind speed in m/s (hover to see current wind gust speed)